createdAt,value
2022-12-09T00:01:10.696Z,97650.25
2022-12-09T00:03:38.215Z,97645.25
2022-12-09T00:06:16.056Z,97654.50
2022-12-09T00:08:43.101Z,97645.81
2022-12-09T00:11:10.599Z,97635.31
2022-12-09T00:13:37.912Z,97630.19
2022-12-09T00:16:10.848Z,97627.91
2022-12-09T00:18:38.713Z,97632.31
2022-12-09T00:21:13.592Z,97644.00
2022-12-09T00:23:40.493Z,97637.88
2022-12-09T00:26:07.802Z,97630.88
2022-12-09T00:28:34.412Z,97629.00
2022-12-09T00:31:02.391Z,97630.72
2022-12-09T00:33:33.637Z,97626.47
2022-12-09T00:36:21.157Z,97623.91
2022-12-09T00:38:49.693Z,97635.28
2022-12-09T00:41:17.574Z,97643.81
2022-12-09T00:43:46.361Z,97650.03
2022-12-09T00:46:13.481Z,97658.66
2022-12-09T00:48:40.821Z,97659.03
2022-12-09T00:51:09.364Z,97664.25
2022-12-09T00:53:36.311Z,97667.56
2022-12-09T00:56:03.217Z,97656.13
2022-12-09T00:58:30.178Z,97644.97
2022-12-09T01:00:57.333Z,97634.44
2022-12-09T01:03:24.393Z,97642.81
2022-12-09T01:05:51.137Z,97650.63
2022-12-09T01:08:18.191Z,97656.63
2022-12-09T01:10:45.900Z,97659.25
2022-12-09T01:13:14.419Z,97652.38
2022-12-09T01:15:41.733Z,97652.50
2022-12-09T01:18:11.249Z,97643.72
2022-12-09T01:20:38.885Z,97641.03
2022-12-09T01:23:05.843Z,97643.72
2022-12-09T01:25:32.870Z,97641.13
2022-12-09T01:28:00.402Z,97638.59
2022-12-09T01:30:27.296Z,97648.13
2022-12-09T01:32:54.515Z,97644.97
2022-12-09T01:35:21.264Z,97648.16
2022-12-09T01:37:49.042Z,97644.56
2022-12-09T01:40:19.077Z,97627.50
2022-12-09T01:42:46.146Z,97638.59
2022-12-09T01:45:22.059Z,97636.25
2022-12-09T01:47:57.828Z,97622.31
2022-12-09T01:50:27.257Z,97611.81
2022-12-09T01:52:55.659Z,97616.09
2022-12-09T01:55:25.209Z,97610.94
2022-12-09T01:57:53.011Z,97617.03
2022-12-09T02:00:21.563Z,97605.84
2022-12-09T02:02:51.466Z,97610.84
2022-12-09T02:05:21.888Z,97599.38
2022-12-09T02:07:54.418Z,97608.81
2022-12-09T02:10:21.946Z,97607.22
2022-12-09T02:13:10.867Z,97620.09
2022-12-09T02:15:48.966Z,97624.44
2022-12-09T02:18:24.078Z,97614.75
2022-12-09T02:21:12.433Z,97615.69
2022-12-09T02:23:51.009Z,97602.94
2022-12-09T02:26:27.727Z,97600.94
2022-12-09T02:29:24.256Z,97592.16
2022-12-09T02:32:04.575Z,97592.94
2022-12-09T02:34:35.721Z,97596.41
2022-12-09T02:37:20.906Z,97594.75
2022-12-09T02:40:12.072Z,97592.16
2022-12-09T02:42:43.749Z,97590.22
2022-12-09T02:45:12.972Z,97574.84
2022-12-09T02:47:47.495Z,97590.63
2022-12-09T02:50:17.874Z,97576.91
2022-12-09T02:52:46.810Z,97588.88
2022-12-09T02:55:16.566Z,97580.28
2022-12-09T02:57:43.528Z,97569.53
2022-12-09T03:00:15.595Z,97580.34
2022-12-09T03:02:49.522Z,97581.25
2022-12-09T03:05:34.362Z,97574.31
2022-12-09T03:08:21.794Z,97555.34
2022-12-09T03:10:58.010Z,97562.06
2022-12-09T03:13:41.196Z,97566.09
2022-12-09T03:16:32.858Z,97558.19
2022-12-09T03:19:22.578Z,97556.44
2022-12-09T03:21:54.058Z,97555.41
2022-12-09T03:24:27.218Z,97550.22
2022-12-09T03:26:54.536Z,97563.91
2022-12-09T03:29:27.170Z,97553.53
2022-12-09T03:31:57.119Z,97560.34
2022-12-09T03:34:30.442Z,97553.41
2022-12-09T03:37:01.897Z,97553.50
2022-12-09T03:39:35.095Z,97541.34
2022-12-09T03:42:07.393Z,97555.00
2022-12-09T03:44:41.604Z,97553.19
2022-12-09T03:47:09.920Z,97539.25
2022-12-09T03:49:38.993Z,97545.25
2022-12-09T03:52:08.880Z,97545.97
2022-12-09T03:54:47.361Z,97546.81
2022-12-09T03:57:18.954Z,97546.69
2022-12-09T03:59:52.676Z,97546.69
2022-12-09T04:02:20.819Z,97543.97
2022-12-09T04:04:47.919Z,97525.22
2022-12-09T04:07:14.846Z,97537.91
2022-12-09T04:09:42.105Z,97532.56
2022-12-09T04:12:09.499Z,97530.84
2022-12-09T04:14:36.581Z,97525.75
2022-12-09T04:17:04.054Z,97527.56
2022-12-09T04:19:30.940Z,97525.97
2022-12-09T04:22:00.130Z,97521.56
2022-12-09T04:24:26.979Z,97518.97
2022-12-09T04:26:53.816Z,97529.25
2022-12-09T04:29:20.620Z,97525.75
2022-12-09T04:31:47.851Z,97521.38
2022-12-09T04:34:14.907Z,97517.19
2022-12-09T04:36:41.801Z,97526.81
2022-12-09T04:39:08.933Z,97521.75
2022-12-09T04:41:36.817Z,97518.25
2022-12-09T04:44:04.459Z,97507.41
2022-12-09T04:46:31.739Z,97515.16
2022-12-09T04:48:58.958Z,97521.28
2022-12-09T04:51:26.034Z,97507.34
2022-12-09T04:53:52.811Z,97512.50
2022-12-09T04:56:22.204Z,97497.09
2022-12-09T04:58:50.720Z,97492.03
2022-12-09T05:01:26.383Z,97505.66
2022-12-09T05:03:56.998Z,97505.53
2022-12-09T05:06:24.535Z,97491.72
2022-12-09T05:08:52.305Z,97497.53
2022-12-09T05:11:20.817Z,97498.38
2022-12-09T05:13:47.949Z,97499.22
2022-12-09T05:16:17.451Z,97485.25
2022-12-09T05:18:46.577Z,97487.88
2022-12-09T05:21:15.936Z,97496.56
2022-12-09T05:23:43.682Z,97495.56
2022-12-09T05:26:13.339Z,97495.66
2022-12-09T05:28:40.445Z,97497.41
2022-12-09T05:31:08.632Z,97506.13
2022-12-09T05:33:35.952Z,97492.22
2022-12-09T05:36:03.220Z,97488.69
2022-12-09T05:38:30.538Z,97490.38
2022-12-09T05:41:00.729Z,97483.22
2022-12-09T05:43:27.738Z,97472.81
2022-12-09T05:45:55.066Z,97472.09
2022-12-09T05:48:22.095Z,97474.69
2022-12-09T05:51:27.191Z,97480.44
2022-12-09T05:53:55.002Z,97478.47
2022-12-09T05:56:24.311Z,97479.28
2022-12-09T05:58:52.284Z,97474.81
2022-12-09T06:01:20.041Z,97473.00
2022-12-09T06:03:48.532Z,97460.00
2022-12-09T06:06:18.588Z,97470.09
2022-12-09T06:08:46.567Z,97463.09
2022-12-09T06:11:21.379Z,97446.16
2022-12-09T06:13:51.460Z,97460.59
2022-12-09T06:16:21.556Z,97458.81
2022-12-09T06:18:49.742Z,97458.03
2022-12-09T06:21:19.241Z,97467.63
2022-12-09T06:23:46.319Z,97454.63
2022-12-09T06:26:26.979Z,97462.47
2022-12-09T06:28:54.262Z,97450.22
2022-12-09T06:31:22.082Z,97452.78
2022-12-09T06:33:55.253Z,97456.22
2022-12-09T06:36:24.253Z,97447.69
2022-12-09T06:38:51.376Z,97451.84
2022-12-09T06:41:18.615Z,97451.72
2022-12-09T06:43:45.611Z,97442.22
2022-12-09T06:46:15.683Z,97445.00
2022-12-09T06:48:43.714Z,97448.31
2022-12-09T06:51:11.293Z,97449.09
2022-12-09T06:53:38.583Z,97451.06
2022-12-09T06:56:11.526Z,97472.63
2022-12-09T06:58:41.198Z,97460.78
2022-12-09T07:01:15.784Z,97451.06
2022-12-09T07:03:45.803Z,97443.19
2022-12-09T07:06:32.809Z,97451.59
2022-12-09T07:09:05.689Z,97449.75
2022-12-09T07:11:33.592Z,97441.38
2022-12-09T07:14:00.750Z,97449.09
2022-12-09T07:16:29.217Z,97435.19
2022-12-09T07:18:57.191Z,97443.84
2022-12-09T07:21:24.801Z,97446.13
2022-12-09T07:23:52.530Z,97441.47
2022-12-09T07:26:20.642Z,97441.06
2022-12-09T07:28:50.184Z,97436.72
2022-12-09T07:31:20.174Z,97424.41
2022-12-09T07:33:47.665Z,97454.41
2022-12-09T07:36:20.523Z,97448.69
2022-12-09T07:38:48.330Z,97450.25
2022-12-09T07:41:18.574Z,97436.13
2022-12-09T07:43:46.309Z,97437.78
2022-12-09T07:46:16.942Z,97435.38
2022-12-09T07:48:45.671Z,97436.03
2022-12-09T07:51:13.400Z,97423.31
2022-12-09T07:53:40.651Z,97433.69
2022-12-09T07:56:09.296Z,97434.34
2022-12-09T07:58:36.578Z,97436.34
2022-12-09T08:01:11.559Z,97431.03
2022-12-09T08:03:43.455Z,97422.16
2022-12-09T08:06:15.990Z,97430.47
2022-12-09T08:08:44.274Z,97434.84
2022-12-09T08:11:19.972Z,97434.00
2022-12-09T08:13:48.298Z,97423.50
2022-12-09T08:16:18.518Z,97415.53
2022-12-09T08:18:46.625Z,97403.13
2022-12-09T08:21:17.533Z,97397.00
2022-12-09T08:23:45.738Z,97409.81
2022-12-09T08:26:14.518Z,97407.66
2022-12-09T08:28:42.083Z,97404.88
2022-12-09T08:31:30.298Z,97407.34
2022-12-09T08:33:58.843Z,97404.84
2022-12-09T08:36:28.493Z,97411.78
2022-12-09T08:38:58.820Z,97405.81
2022-12-09T08:41:36.866Z,97391.63
2022-12-09T08:44:08.052Z,97384.34
2022-12-09T08:46:37.235Z,97378.28
2022-12-09T08:49:05.599Z,97375.13
2022-12-09T08:51:33.980Z,97374.84
2022-12-09T08:54:01.781Z,97375.31
2022-12-09T08:56:29.329Z,97382.13
2022-12-09T08:58:57.153Z,97386.38
2022-12-09T09:01:32.361Z,97386.47
2022-12-09T09:04:08.470Z,97391.53
2022-12-09T09:06:38.330Z,97404.84
2022-12-09T09:09:07.368Z,97398.47
2022-12-09T09:11:35.480Z,97397.84
2022-12-09T09:14:04.957Z,97393.00
2022-12-09T09:16:32.891Z,97386.47
2022-12-09T09:19:00.321Z,97386.56
2022-12-09T09:21:27.711Z,97377.63
2022-12-09T09:23:54.848Z,97381.88
2022-12-09T09:26:26.142Z,97371.22
2022-12-09T09:28:55.101Z,97363.16
2022-12-09T09:31:24.217Z,97342.50
2022-12-09T09:33:51.254Z,97349.91
2022-12-09T09:36:24.580Z,97343.53
2022-12-09T09:38:54.939Z,97339.75
2022-12-09T09:41:52.540Z,97329.84
2022-12-09T09:44:22.501Z,97334.22
2022-12-09T09:46:51.697Z,97335.97
2022-12-09T09:49:35.504Z,97298.44
2022-12-09T09:52:15.175Z,97298.88
2022-12-09T09:54:42.319Z,97311.28
2022-12-09T09:57:30.019Z,97325.63
2022-12-09T10:00:18.323Z,97315.34
2022-12-09T10:02:59.982Z,97301.88
2022-12-09T10:05:37.840Z,97304.44
2022-12-09T10:08:42.901Z,97295.38
2022-12-09T10:11:39.832Z,97293.06
2022-12-09T10:14:36.308Z,97275.75
2022-12-09T10:17:26.286Z,97267.50
2022-12-09T10:19:59.151Z,97258.59
2022-12-09T10:22:29.919Z,97255.06
2022-12-09T10:24:59.187Z,97245.53
2022-12-09T10:27:38.132Z,97235.25
2022-12-09T10:30:12.107Z,97215.16
2022-12-09T10:32:40.313Z,97214.16
2022-12-09T10:35:22.632Z,97228.66
2022-12-09T10:37:54.926Z,97227.84
2022-12-09T10:40:22.105Z,97220.41
2022-12-09T10:43:17.655Z,97200.97
2022-12-09T10:48:53.061Z,97167.91
2022-12-09T10:51:30.176Z,97158.56
2022-12-09T10:54:15.410Z,97153.00
2022-12-09T10:57:12.697Z,97154.53
2022-12-09T10:59:42.465Z,97141.19
2022-12-09T11:02:09.821Z,97146.97
2022-12-09T11:04:41.046Z,97162.06
2022-12-09T11:07:27.065Z,97151.28
2022-12-09T11:09:57.905Z,97154.91
2022-12-09T11:12:33.427Z,97152.91
2022-12-09T11:15:38.204Z,97143.13
2022-12-09T11:18:16.899Z,97140.06
2022-12-09T11:20:56.220Z,97126.34
2022-12-09T11:23:24.559Z,97145.38
2022-12-09T11:25:55.751Z,97143.09
2022-12-09T11:28:27.691Z,97131.81
2022-12-09T11:31:28.305Z,97147.63
2022-12-09T11:33:58.215Z,97136.69
2022-12-09T11:36:37.109Z,97143.78
2022-12-09T11:39:40.493Z,97134.78
2022-12-09T11:42:22.760Z,97126.97
2022-12-09T11:44:53.485Z,97118.69
2022-12-09T11:48:24.086Z,97117.44
2022-12-09T11:50:42.656Z,97120.66
2022-12-09T11:53:13.231Z,97118.13
2022-12-09T11:55:52.272Z,97123.63
2022-12-09T11:58:27.923Z,97130.34
2022-12-09T12:01:13.692Z,97124.88
2022-12-09T12:03:41.076Z,97118.72
2022-12-09T12:06:23.177Z,97100.44
2022-12-09T12:08:59.762Z,97107.69
2022-12-09T12:11:41.192Z,97102.66
2022-12-09T12:14:23.475Z,97126.56
2022-12-09T12:17:20.252Z,97119.81
2022-12-09T12:19:52.788Z,97118.00
2022-12-09T12:22:35.572Z,97111.59
2022-12-09T12:25:22.003Z,97100.03
2022-12-09T12:28:23.080Z,97101.88
2022-12-09T12:31:37.817Z,97094.75
2022-12-09T12:34:25.945Z,97068.44
2022-12-09T12:37:32.651Z,97076.88
2022-12-09T12:40:00.187Z,97072.97
2022-12-09T12:42:39.698Z,97084.53
2022-12-09T12:45:48.027Z,97079.97
2022-12-09T12:48:32.830Z,97081.34
2022-12-09T12:51:06.015Z,97072.91
2022-12-09T12:53:50.019Z,97046.69
2022-12-09T12:56:30.928Z,97051.84
2022-12-09T12:59:33.861Z,97056.09
2022-12-09T13:02:18.746Z,97060.91
2022-12-09T13:04:53.124Z,97073.59
2022-12-09T13:07:43.935Z,97053.06
2022-12-09T13:10:42.422Z,97039.19
2022-12-09T13:13:27.835Z,97032.69
2022-12-09T13:16:01.040Z,97020.84
2022-12-09T13:18:39.219Z,97025.91
2022-12-09T13:21:07.950Z,97026.16
2022-12-09T13:24:14.373Z,97010.41
2022-12-09T13:27:03.038Z,97017.59
2022-12-09T13:29:38.728Z,97008.41
2022-12-09T13:32:17.436Z,96997.88
2022-12-09T13:34:51.562Z,97000.97
2022-12-09T13:37:34.912Z,97004.31
2022-12-09T13:40:05.225Z,96996.31
2022-12-09T13:42:52.131Z,96986.69
2022-12-09T13:45:25.183Z,96990.06
2022-12-09T13:47:55.767Z,97005.34
2022-12-09T13:50:37.349Z,96997.75
2022-12-09T13:53:26.973Z,96987.72
2022-12-09T13:56:08.259Z,96996.13
2022-12-09T13:58:53.647Z,96994.50
2022-12-09T14:01:37.635Z,96997.38
2022-12-09T14:04:10.364Z,96977.25
2022-12-09T14:06:50.514Z,96977.31
2022-12-09T14:09:33.663Z,96984.69
2022-12-09T14:12:03.393Z,96981.72
2022-12-09T14:14:30.065Z,96975.53
2022-12-09T14:17:02.211Z,96979.84
2022-12-09T14:19:34.087Z,96965.59
2022-12-09T14:22:20.232Z,96960.84
2022-12-09T14:24:50.655Z,96949.38
2022-12-09T14:27:29.979Z,96930.34
2022-12-09T14:30:25.114Z,96927.25
2022-12-09T14:32:57.455Z,96926.22
2022-12-09T14:35:42.468Z,96936.69
2022-12-09T14:38:21.561Z,96947.97
2022-12-09T14:41:15.885Z,96938.28
2022-12-09T14:43:50.303Z,96942.75
2022-12-09T14:46:37.163Z,96932.41
2022-12-09T14:49:28.700Z,96928.47
2022-12-09T14:52:08.836Z,96925.78
2022-12-09T14:54:41.768Z,96916.34
2022-12-09T14:57:20.683Z,96913.91
2022-12-09T14:59:54.050Z,96918.19
2022-12-09T15:02:26.914Z,96919.91
2022-12-09T15:04:54.999Z,96897.41
2022-12-09T15:07:25.401Z,96900.28
2022-12-09T15:09:53.886Z,96907.94
2022-12-09T15:12:43.584Z,96896.47
2022-12-09T15:15:10.359Z,96894.88
2022-12-09T15:17:45.056Z,96897.41
2022-12-09T15:20:34.608Z,96893.28
2022-12-09T15:23:15.470Z,96880.78
2022-12-09T15:26:04.459Z,96880.78
2022-12-09T15:28:34.511Z,96887.47
2022-12-09T15:31:02.992Z,96881.97
2022-12-09T15:33:32.354Z,96882.06
2022-12-09T15:36:06.074Z,96871.72
2022-12-09T15:38:40.905Z,96870.13
2022-12-09T15:41:29.125Z,96865.94
2022-12-09T15:44:03.106Z,96864.16
2022-12-09T15:46:34.057Z,96853.13
2022-12-09T15:49:03.194Z,96866.31
2022-12-09T15:51:32.289Z,96869.69
2022-12-09T15:54:07.352Z,96859.50
2022-12-09T15:56:55.908Z,96856.50
2022-12-09T15:59:35.912Z,96864.16
2022-12-09T16:02:03.395Z,96856.22
2022-12-09T16:04:35.337Z,96860.13
2022-12-09T16:07:10.395Z,96856.69
2022-12-09T16:09:37.181Z,96846.41
2022-12-09T16:12:04.045Z,96840.31
2022-12-09T16:14:44.503Z,96835.78
2022-12-09T16:17:24.203Z,96851.53
2022-12-09T16:19:51.182Z,96837.00
2022-12-09T16:22:24.920Z,96836.81
2022-12-09T16:25:17.588Z,96839.22
2022-12-09T16:27:48.965Z,96839.16
2022-12-09T16:30:22.932Z,96825.78
2022-12-09T16:32:52.859Z,96825.97
2022-12-09T16:35:28.837Z,96810.03
2022-12-09T16:37:58.491Z,96811.63
2022-12-09T16:40:25.164Z,96801.38
2022-12-09T16:42:54.525Z,96796.97
2022-12-09T16:45:30.813Z,96795.00
2022-12-09T16:47:59.180Z,96793.78
2022-12-09T16:50:43.672Z,96798.81
2022-12-09T16:53:16.494Z,96808.38
2022-12-09T16:55:51.891Z,96802.19
2022-12-09T16:58:18.868Z,96795.09
2022-12-09T17:00:46.852Z,96793.72
2022-12-09T17:03:41.027Z,96770.28
2022-12-09T17:06:13.689Z,96755.44
2022-12-09T17:08:40.390Z,96739.59
2022-12-09T17:11:07.236Z,96737.06
2022-12-09T17:13:34.370Z,96724.94
2022-12-09T17:16:01.858Z,96734.16
2022-12-09T17:18:29.769Z,96731.44
2022-12-09T17:21:01.063Z,96729.66
2022-12-09T17:23:28.074Z,96750.13
2022-12-09T17:25:59.560Z,96739.50
2022-12-09T17:28:30.039Z,96735.88
2022-12-09T17:30:58.771Z,96732.56
2022-12-09T17:33:27.711Z,96700.00
2022-12-09T17:35:55.472Z,96699.72
2022-12-09T17:38:23.001Z,96700.88
2022-12-09T17:40:49.999Z,96712.03
2022-12-09T17:43:16.717Z,96700.56
2022-12-09T17:45:43.455Z,96679.50
2022-12-09T17:48:10.431Z,96675.81
2022-12-09T17:50:38.415Z,96685.63
2022-12-09T17:53:07.015Z,96698.34
2022-12-09T17:55:33.709Z,96699.94
2022-12-09T17:58:00.588Z,96717.47
2022-12-09T18:00:27.258Z,96730.72
2022-12-09T18:02:53.956Z,96722.25
2022-12-09T18:05:20.689Z,96715.06
2022-12-09T18:07:47.466Z,96704.44
2022-12-09T18:10:14.193Z,96725.31
2022-12-09T18:12:41.039Z,96716.53
2022-12-09T18:15:08.158Z,96703.75
2022-12-09T18:17:34.964Z,96704.41
2022-12-09T18:20:01.726Z,96714.00
2022-12-09T18:22:28.510Z,96698.44
2022-12-09T18:24:55.260Z,96688.28
2022-12-09T18:27:22.021Z,96676.81
2022-12-09T18:29:48.757Z,96667.38
2022-12-09T18:32:15.554Z,96676.59
2022-12-09T18:34:43.203Z,96684.44
2022-12-09T18:37:09.923Z,96684.34
2022-12-09T18:39:37.003Z,96678.06
2022-12-09T18:42:04.697Z,96689.38
2022-12-09T18:44:31.430Z,96692.09
2022-12-09T18:46:58.274Z,96694.63
2022-12-09T18:49:27.051Z,96683.22
2022-12-09T18:51:54.518Z,96683.84
2022-12-09T18:54:27.478Z,96697.22
2022-12-09T18:56:55.615Z,96700.88
2022-12-09T18:59:25.333Z,96698.16
2022-12-09T19:01:52.610Z,96704.31
2022-12-09T19:04:22.495Z,96701.69
2022-12-09T19:06:51.593Z,96712.63
2022-12-09T19:09:23.555Z,96716.06
2022-12-09T19:11:51.747Z,96709.06
2022-12-09T19:14:20.342Z,96700.59
2022-12-09T19:16:47.831Z,96685.56
2022-12-09T19:19:18.204Z,96670.75
2022-12-09T19:21:45.699Z,96665.81
2022-12-09T19:24:19.115Z,96669.00
2022-12-09T19:26:46.156Z,96691.63
2022-12-09T19:29:14.487Z,96680.56
2022-12-09T19:31:44.930Z,96696.22
2022-12-09T19:34:21.137Z,96708.25
2022-12-09T19:36:50.292Z,96695.94
2022-12-09T19:39:19.405Z,96702.56
2022-12-09T19:41:48.331Z,96691.38
2022-12-09T19:44:31.046Z,96705.06
2022-12-09T19:47:04.791Z,96713.75
2022-12-09T19:49:31.752Z,96707.78
2022-12-09T19:52:00.240Z,96695.28
2022-12-09T19:54:29.783Z,96670.75
2022-12-09T19:56:57.255Z,96665.22
2022-12-09T19:59:23.877Z,96639.75
2022-12-09T20:01:51.501Z,96661.38
2022-12-09T20:07:08.413Z,96655.25
2022-12-09T20:09:36.659Z,96661.41
2022-12-09T20:12:03.869Z,96665.44
2022-12-09T20:14:32.316Z,96663.94
2022-12-09T20:16:59.448Z,96665.63
2022-12-09T20:19:26.262Z,96674.69
2022-12-09T20:21:53.024Z,96657.06
2022-12-09T20:24:19.707Z,96678.88
2022-12-09T20:26:46.505Z,96667.34
2022-12-09T20:29:13.325Z,96677.03
2022-12-09T20:31:41.835Z,96688.56
2022-12-09T20:34:12.891Z,96692.19
2022-12-09T20:36:41.122Z,96693.78
2022-12-09T20:39:12.656Z,96688.19
2022-12-09T20:41:41.744Z,96666.22
2022-12-09T20:44:10.514Z,96657.44
2022-12-09T20:46:39.065Z,96665.97
2022-12-09T20:49:06.290Z,96657.22
2022-12-09T20:51:37.762Z,96656.47
2022-12-09T20:54:06.088Z,96641.09
2022-12-09T20:56:33.991Z,96655.09
2022-12-09T20:59:01.412Z,96663.66
2022-12-09T21:01:30.849Z,96667.88
2022-12-09T21:03:59.119Z,96669.63
2022-12-09T21:06:29.956Z,96671.06
2022-12-09T21:08:59.881Z,96678.75
2022-12-09T21:11:26.854Z,96680.06
2022-12-09T21:13:57.676Z,96686.03
2022-12-09T21:16:29.788Z,96696.19
2022-12-09T21:18:58.588Z,96689.47
2022-12-09T21:21:31.168Z,96698.31
2022-12-09T21:23:59.915Z,96686.13
2022-12-09T21:26:27.549Z,96689.31
2022-12-09T21:28:55.278Z,96683.59
2022-12-09T21:31:25.522Z,96698.06
2022-12-09T21:33:54.747Z,96695.19
2022-12-09T21:36:27.393Z,96704.84
2022-12-09T21:38:56.982Z,96697.03
2022-12-09T21:41:26.670Z,96704.69
2022-12-09T21:43:55.125Z,96708.13
2022-12-09T21:46:24.614Z,96697.88
2022-12-09T21:48:53.178Z,96706.53
2022-12-09T21:51:23.062Z,96716.44
2022-12-09T21:53:51.591Z,96724.31
2022-12-09T21:56:21.373Z,96721.91
2022-12-09T21:58:52.548Z,96707.63
2022-12-09T22:01:22.371Z,96708.84
2022-12-09T22:03:49.896Z,96705.47
2022-12-09T22:06:18.703Z,96713.72
2022-12-09T22:08:45.946Z,96715.94
2022-12-09T22:11:16.233Z,96714.44
2022-12-09T22:13:43.379Z,96736.97
2022-12-09T22:16:19.705Z,96737.81
2022-12-09T22:18:48.139Z,96728.41
2022-12-09T22:21:27.085Z,96723.59
2022-12-09T22:23:56.627Z,96728.94
2022-12-09T22:26:24.843Z,96730.94
2022-12-09T22:28:52.669Z,96745.59
2022-12-09T22:31:24.234Z,96746.59
2022-12-09T22:33:53.345Z,96742.56
2022-12-09T22:36:20.649Z,96754.66
2022-12-09T22:38:48.169Z,96761.81
2022-12-09T22:41:20.934Z,96760.88
2022-12-09T22:43:52.327Z,96762.47
2022-12-09T22:46:25.959Z,96766.78
2022-12-09T22:48:54.749Z,96760.63
2022-12-09T22:51:25.590Z,96763.25
2022-12-09T22:53:53.983Z,96756.25
2022-12-09T22:56:21.893Z,96772.91
2022-12-09T22:58:49.326Z,96778.94
2022-12-09T23:01:18.861Z,96777.22
2022-12-09T23:03:45.794Z,96770.47
2022-12-09T23:06:14.201Z,96767.88
2022-12-09T23:08:42.494Z,96772.50
2022-12-09T23:11:13.340Z,96779.41
2022-12-09T23:13:41.483Z,96784.69
2022-12-09T23:16:12.516Z,96797.53
2022-12-09T23:18:39.709Z,96803.59
2022-12-09T23:21:12.231Z,96806.03
2022-12-09T23:23:39.499Z,96809.41
2022-12-09T23:26:12.135Z,96815.22
2022-12-09T23:28:45.294Z,96815.03
2022-12-09T23:31:14.094Z,96808.16
2022-12-09T23:33:42.434Z,96813.00
2022-12-09T23:36:18.431Z,96808.06
2022-12-09T23:38:48.208Z,96813.44
2022-12-09T23:41:17.447Z,96810.75
2022-12-09T23:43:46.048Z,96821.09
2022-12-09T23:46:27.148Z,96811.69
2022-12-09T23:48:55.693Z,96809.09
2022-12-09T23:51:29.817Z,96822.66
2022-12-09T23:53:59.839Z,96829.59
2022-12-09T23:56:29.186Z,96818.16
2022-12-09T23:58:58.098Z,96812.25
